createdAt,value
2018-01-10T00:02:16.794Z,16.20
2018-01-10T00:04:44.587Z,15.57
2018-01-10T00:07:12.056Z,16.63
2018-01-10T00:09:39.520Z,15.30
2018-01-10T00:12:07.244Z,16.57
2018-01-10T00:14:34.700Z,15.90
2018-01-10T00:17:02.164Z,18.13
2018-01-10T00:19:29.918Z,15.00
2018-01-10T00:21:57.369Z,16.60
2018-01-10T00:24:24.841Z,16.20
2018-01-10T00:26:52.921Z,17.60
2018-01-10T00:29:20.383Z,16.47
2018-01-10T00:31:47.846Z,15.63
2018-01-10T00:34:15.610Z,15.73
2018-01-10T00:36:43.069Z,16.93
2018-01-10T00:39:10.536Z,17.50
2018-01-10T00:41:38.298Z,16.83
2018-01-10T00:44:05.772Z,16.63
2018-01-10T00:46:33.237Z,17.87
2018-01-10T00:49:00.981Z,15.73
2018-01-10T00:51:28.448Z,17.33
2018-01-10T00:53:55.902Z,17.93
2018-01-10T00:56:23.976Z,15.93
2018-01-10T00:58:52.432Z,15.67
2018-01-10T01:01:19.899Z,16.10
2018-01-10T01:03:47.885Z,16.37
2018-01-10T01:06:15.341Z,15.20
2018-01-10T01:08:42.806Z,18.23
2018-01-10T01:11:10.894Z,16.13
2018-01-10T01:13:38.353Z,15.70
2018-01-10T01:16:05.818Z,15.50
2018-01-10T01:18:33.573Z,16.40
2018-01-10T01:21:01.037Z,16.73
2018-01-10T01:23:28.503Z,15.10
2018-01-10T01:25:56.253Z,14.37
2018-01-10T01:28:23.709Z,15.73
2018-01-10T01:30:51.167Z,14.27
2018-01-10T01:33:18.956Z,16.60
2018-01-10T01:35:46.415Z,17.57
2018-01-10T01:38:13.875Z,18.10
2018-01-10T01:40:41.636Z,17.37
2018-01-10T01:43:09.094Z,15.87
2018-01-10T01:45:36.560Z,16.23
2018-01-10T01:48:04.411Z,16.13
2018-01-10T01:50:31.873Z,15.63
2018-01-10T01:52:59.345Z,15.57
2018-01-10T01:55:27.325Z,14.43
2018-01-10T01:57:54.781Z,14.53
2018-01-10T02:00:23.409Z,18.27
2018-01-10T02:02:51.241Z,14.23
2018-01-10T02:05:18.737Z,14.90
2018-01-10T02:07:46.231Z,15.63
2018-01-10T02:10:13.966Z,15.20
2018-01-10T02:12:41.432Z,16.70
2018-01-10T02:15:08.884Z,16.27
2018-01-10T02:17:36.603Z,15.80
2018-01-10T02:20:04.081Z,16.00
2018-01-10T02:22:32.461Z,16.27
2018-01-10T02:25:00.218Z,15.60
2018-01-10T02:27:27.672Z,17.87
2018-01-10T02:29:55.130Z,16.80
2018-01-10T02:32:22.904Z,16.83
2018-01-10T02:34:50.360Z,17.50
2018-01-10T02:37:17.813Z,17.57
2018-01-10T02:39:45.893Z,13.23
2018-01-10T02:42:25.175Z,15.63
2018-01-10T02:44:53.428Z,15.77
2018-01-10T02:47:21.107Z,15.87
2018-01-10T02:49:48.569Z,16.97
2018-01-10T02:52:16.417Z,15.20
2018-01-10T02:54:43.875Z,16.40
2018-01-10T02:57:11.345Z,15.23
2018-01-10T02:59:39.404Z,15.17
2018-01-10T03:02:07.520Z,16.13
2018-01-10T03:04:34.984Z,15.80
2018-01-10T03:07:03.018Z,15.50
2018-01-10T03:09:30.481Z,17.33
2018-01-10T03:11:57.945Z,16.10
2018-01-10T03:14:25.756Z,16.07
2018-01-10T03:16:53.213Z,17.60
2018-01-10T03:19:20.673Z,17.40
2018-01-10T03:21:48.689Z,18.83
2018-01-10T03:24:16.147Z,20.00
2018-01-10T03:26:43.613Z,16.97
2018-01-10T03:29:11.297Z,16.60
2018-01-10T03:31:38.752Z,17.83
2018-01-10T03:34:06.216Z,17.60
2018-01-10T03:36:34.069Z,17.57
2018-01-10T03:39:01.558Z,16.93
2018-01-10T03:41:29.028Z,15.43
2018-01-10T03:43:57.069Z,17.70
2018-01-10T03:46:24.529Z,17.10
2018-01-10T03:48:51.985Z,17.67
2018-01-10T03:51:19.745Z,19.60
2018-01-10T03:53:47.271Z,20.90
2018-01-10T03:56:14.729Z,19.87
2018-01-10T03:58:42.444Z,19.47
2018-01-10T04:01:10.819Z,20.37
2018-01-10T04:03:38.349Z,19.33
2018-01-10T04:06:06.045Z,20.87
2018-01-10T04:08:33.506Z,19.60
2018-01-10T04:11:00.963Z,20.73
2018-01-10T04:13:28.717Z,20.67
2018-01-10T04:15:56.171Z,20.07
2018-01-10T04:18:23.630Z,20.37
2018-01-10T04:20:51.722Z,21.83
2018-01-10T04:23:19.186Z,21.77
2018-01-10T04:25:46.648Z,20.73
2018-01-10T04:28:14.410Z,20.33
2018-01-10T04:30:41.868Z,22.13
2018-01-10T04:33:09.332Z,22.17
2018-01-10T04:35:37.104Z,23.10
2018-01-10T04:38:04.556Z,22.73
2018-01-10T04:40:32.021Z,23.23
2018-01-10T04:42:59.780Z,22.43
2018-01-10T04:45:27.246Z,22.30
2018-01-10T04:47:54.714Z,22.47
2018-01-10T04:50:22.472Z,22.20
2018-01-10T04:52:49.925Z,22.73
2018-01-10T04:55:17.376Z,22.17
2018-01-10T04:57:45.108Z,22.40
2018-01-10T05:00:12.565Z,21.33
2018-01-10T05:02:40.028Z,22.10
2018-01-10T05:11:51.914Z,23.50
2018-01-10T05:14:19.368Z,24.93
2018-01-10T05:16:46.821Z,25.03
2018-01-10T05:19:14.820Z,25.37
2018-01-10T05:21:42.278Z,24.23
2018-01-10T05:24:09.745Z,24.87
2018-01-10T05:26:37.507Z,25.77
2018-01-10T05:29:04.969Z,25.67
2018-01-10T05:31:32.426Z,24.30
2018-01-10T05:34:00.242Z,26.33
2018-01-10T05:36:27.701Z,24.83
2018-01-10T05:38:55.158Z,24.30
2018-01-10T05:41:22.871Z,27.73
2018-01-10T05:43:50.325Z,35.57
2018-01-10T05:46:17.785Z,32.47
2018-01-10T05:48:45.385Z,25.87
2018-01-10T05:51:12.832Z,24.67
2018-01-10T05:53:40.285Z,25.30
2018-01-10T05:56:07.990Z,23.33
2018-01-10T05:58:35.453Z,25.37
2018-01-10T06:01:02.912Z,24.90
2018-01-10T06:03:30.758Z,24.50
2018-01-10T06:05:58.472Z,25.33
2018-01-10T06:08:25.938Z,26.07
2018-01-10T06:10:53.877Z,25.97
2018-01-10T06:13:21.343Z,24.90
2018-01-10T06:15:48.804Z,26.37
2018-01-10T06:18:16.621Z,25.20
2018-01-10T06:20:44.089Z,25.03
2018-01-10T06:23:11.548Z,23.93
2018-01-10T06:25:39.616Z,27.70
2018-01-10T06:28:07.074Z,28.63
2018-01-10T06:30:34.590Z,30.57
2018-01-10T06:33:02.617Z,29.83
2018-01-10T06:35:30.081Z,31.10
2018-01-10T06:37:57.545Z,30.10
2018-01-10T06:40:25.268Z,30.03
2018-01-10T06:42:52.720Z,28.83
2018-01-10T06:45:20.180Z,28.80
2018-01-10T06:47:47.853Z,28.00
2018-01-10T06:50:15.313Z,27.03
2018-01-10T06:52:42.788Z,28.93
2018-01-10T06:55:10.510Z,27.20
2018-01-10T06:57:37.967Z,27.27
2018-01-10T07:00:05.429Z,26.63
2018-01-10T07:02:33.366Z,28.80
2018-01-10T07:05:00.833Z,27.17
2018-01-10T07:07:28.703Z,27.43
2018-01-10T07:09:57.276Z,30.13
2018-01-10T07:12:24.736Z,32.10
2018-01-10T07:14:52.197Z,32.87
2018-01-10T07:17:19.963Z,32.50
2018-01-10T07:19:47.429Z,29.37
2018-01-10T07:22:14.887Z,31.63
2018-01-10T07:24:43.261Z,31.27
2018-01-10T07:27:10.728Z,28.77
2018-01-10T07:29:38.180Z,27.67
2018-01-10T07:32:05.936Z,25.97
2018-01-10T07:34:33.389Z,28.80
2018-01-10T07:37:00.854Z,28.47
2018-01-10T07:39:28.894Z,28.13
2018-01-10T07:41:56.357Z,29.20
2018-01-10T07:44:23.821Z,27.63
2018-01-10T07:46:51.594Z,28.40
2018-01-10T07:49:19.049Z,25.00
2018-01-10T07:51:46.514Z,23.27
2018-01-10T07:54:14.321Z,22.27
2018-01-10T07:56:41.781Z,24.60
2018-01-10T07:59:09.254Z,23.67
2018-01-10T08:01:38.153Z,22.53
2018-01-10T08:04:06.250Z,22.90
2018-01-10T08:06:33.723Z,24.07
2018-01-10T08:09:02.148Z,26.00
2018-01-10T08:11:29.610Z,29.70
2018-01-10T08:13:57.068Z,26.70
2018-01-10T08:16:25.139Z,26.70
2018-01-10T08:18:52.769Z,28.10
2018-01-10T08:21:20.232Z,26.30
2018-01-10T08:23:48.137Z,28.17
2018-01-10T08:26:15.593Z,30.00
2018-01-10T08:28:44.329Z,30.40
2018-01-10T08:31:12.079Z,30.43
2018-01-10T08:33:39.557Z,32.37
2018-01-10T08:36:07.015Z,30.37
2018-01-10T08:38:34.733Z,29.70
2018-01-10T08:41:02.191Z,29.00
2018-01-10T08:43:29.648Z,31.00
2018-01-10T08:45:57.732Z,28.73
2018-01-10T08:48:25.290Z,28.67
2018-01-10T08:50:52.718Z,28.50
2018-01-10T08:53:20.432Z,28.93
2018-01-10T08:55:48.831Z,28.80
2018-01-10T08:58:16.307Z,26.30
2018-01-10T09:00:44.033Z,30.20
2018-01-10T09:03:11.501Z,27.77
2018-01-10T09:05:38.954Z,27.47
2018-01-10T09:08:06.714Z,26.73
2018-01-10T09:10:36.000Z,26.53
2018-01-10T09:13:03.457Z,27.77
2018-01-10T09:15:31.237Z,27.00
2018-01-10T09:17:58.704Z,28.07
2018-01-10T09:20:26.167Z,28.13
2018-01-10T09:22:53.936Z,29.13
2018-01-10T09:25:21.398Z,29.53
2018-01-10T09:27:48.855Z,25.47
2018-01-10T09:30:16.573Z,24.60
2018-01-10T09:32:44.031Z,26.43
2018-01-10T09:35:11.485Z,26.30
2018-01-10T09:37:39.317Z,26.40
2018-01-10T09:40:06.816Z,28.30
2018-01-10T09:42:34.258Z,27.33
2018-01-10T09:45:02.006Z,27.67
2018-01-10T09:47:29.459Z,28.27
2018-01-10T09:49:56.925Z,28.33
2018-01-10T09:52:24.668Z,27.87
2018-01-10T09:54:52.126Z,26.67
2018-01-10T09:57:19.582Z,24.00
2018-01-10T09:59:47.296Z,24.87
2018-01-10T10:02:14.748Z,27.30
2018-01-10T10:04:42.218Z,22.80
2018-01-10T10:07:10.052Z,26.10
2018-01-10T10:09:37.512Z,23.07
2018-01-10T10:12:05.402Z,24.10
2018-01-10T10:14:33.125Z,21.73
2018-01-10T10:17:00.578Z,23.13
2018-01-10T10:19:28.036Z,21.87
2018-01-10T10:21:55.729Z,20.63
2018-01-10T10:24:23.186Z,21.73
2018-01-10T10:26:50.639Z,22.50
2018-01-10T10:29:18.417Z,22.17
2018-01-10T10:31:45.873Z,21.37
2018-01-10T10:34:13.338Z,22.53
2018-01-10T10:36:41.053Z,22.87
2018-01-10T10:39:08.513Z,22.57
2018-01-10T10:41:35.974Z,20.20
2018-01-10T10:44:03.784Z,22.17
2018-01-10T10:46:31.237Z,21.43
2018-01-10T10:48:58.693Z,22.07
2018-01-10T10:51:26.444Z,22.90
2018-01-10T10:53:53.900Z,23.03
2018-01-10T10:56:21.353Z,22.97
2018-01-10T10:58:48.988Z,22.03
2018-01-10T11:01:16.456Z,22.20
2018-01-10T11:03:43.914Z,22.90
2018-01-10T11:06:11.853Z,21.70
2018-01-10T11:08:39.302Z,20.77
2018-01-10T11:11:06.773Z,23.33
2018-01-10T11:13:35.785Z,21.00
2018-01-10T11:16:03.242Z,20.90
2018-01-10T11:18:30.700Z,21.20
2018-01-10T11:20:58.439Z,21.70
2018-01-10T11:23:26.006Z,20.03
2018-01-10T11:25:53.467Z,22.10
2018-01-10T11:28:27.605Z,20.10
2018-01-10T11:30:55.060Z,20.57
2018-01-10T11:33:22.507Z,23.13
2018-01-10T11:35:50.280Z,19.37
2018-01-10T11:38:17.735Z,20.40
2018-01-10T11:40:45.209Z,20.93
2018-01-10T11:43:13.268Z,21.93
2018-01-10T11:45:40.758Z,21.43
2018-01-10T11:48:08.185Z,22.80
2018-01-10T11:50:35.826Z,24.20
2018-01-10T11:53:03.286Z,22.37
2018-01-10T11:55:30.742Z,24.80
2018-01-10T11:57:58.664Z,24.13
2018-01-10T12:00:26.118Z,24.57
2018-01-10T12:02:53.568Z,24.07
2018-01-10T12:05:21.344Z,23.27
2018-01-10T12:07:48.816Z,23.60
2018-01-10T12:10:16.260Z,23.40
2018-01-10T12:12:44.024Z,26.20
2018-01-10T12:15:12.178Z,22.43
2018-01-10T12:17:39.635Z,24.77
2018-01-10T12:20:07.640Z,22.93
2018-01-10T12:22:35.142Z,23.70
2018-01-10T12:25:02.600Z,23.23
2018-01-10T12:27:30.327Z,23.70
2018-01-10T12:29:57.784Z,22.07
2018-01-10T12:32:25.250Z,22.73
2018-01-10T12:34:53.316Z,21.27
2018-01-10T12:37:20.770Z,21.53
2018-01-10T12:39:48.321Z,21.80
2018-01-10T12:42:16.572Z,20.87
2018-01-10T12:44:44.033Z,21.90
2018-01-10T12:47:11.515Z,22.87
2018-01-10T12:49:39.630Z,21.47
2018-01-10T12:52:07.089Z,23.03
2018-01-10T12:54:34.541Z,21.10
2018-01-10T12:57:02.299Z,20.13
2018-01-10T12:59:29.761Z,20.10
2018-01-10T13:01:57.220Z,21.90
2018-01-10T13:04:24.985Z,21.87
2018-01-10T13:06:52.452Z,21.30
2018-01-10T13:09:19.920Z,20.63
2018-01-10T13:11:47.677Z,21.40
2018-01-10T13:14:15.141Z,20.93
2018-01-10T13:16:42.849Z,21.40
2018-01-10T13:19:10.603Z,21.80
2018-01-10T13:21:38.074Z,21.27
2018-01-10T13:24:05.545Z,22.13
2018-01-10T13:26:33.692Z,23.10
2018-01-10T13:29:01.163Z,24.00
2018-01-10T13:31:28.609Z,24.50
2018-01-10T13:33:56.416Z,24.03
2018-01-10T13:36:23.903Z,25.10
2018-01-10T13:38:51.399Z,22.80
2018-01-10T13:41:19.354Z,22.30
2018-01-10T13:43:47.025Z,22.30
2018-01-10T13:46:14.511Z,24.27
2018-01-10T13:48:42.348Z,24.10
2018-01-10T13:51:09.800Z,23.80
2018-01-10T13:53:37.263Z,23.00
2018-01-10T13:56:04.933Z,22.63
2018-01-10T13:58:32.393Z,22.90
2018-01-10T14:00:59.858Z,21.80
2018-01-10T14:03:27.709Z,22.90
2018-01-10T14:05:55.166Z,23.70
2018-01-10T14:08:22.623Z,22.57
2018-01-10T14:10:50.294Z,24.07
2018-01-10T14:13:17.761Z,22.87
2018-01-10T14:15:45.222Z,23.57
2018-01-10T14:18:13.701Z,23.37
2018-01-10T14:20:41.217Z,25.13
2018-01-10T14:23:08.705Z,27.07
2018-01-10T14:25:36.289Z,26.53
2018-01-10T14:28:03.926Z,29.20
2018-01-10T14:30:31.390Z,28.33
2018-01-10T14:32:59.374Z,31.10
2018-01-10T14:35:26.826Z,31.47
2018-01-10T14:37:54.278Z,32.40
2018-01-10T14:40:22.066Z,34.50
2018-01-10T14:42:49.522Z,31.27
2018-01-10T14:45:16.981Z,31.73
2018-01-10T14:47:44.759Z,33.10
2018-01-10T14:50:12.219Z,34.00
2018-01-10T14:52:39.677Z,33.10
2018-01-10T14:55:07.473Z,32.40
2018-01-10T14:57:34.925Z,30.43
2018-01-10T15:00:02.384Z,36.17
2018-01-10T15:02:30.134Z,35.10
2018-01-10T15:04:57.609Z,31.93
2018-01-10T15:07:25.074Z,32.47
2018-01-10T15:09:52.809Z,32.10
2018-01-10T15:12:20.265Z,31.70
2018-01-10T15:14:47.726Z,30.67
2018-01-10T15:17:15.817Z,33.30
2018-01-10T15:19:43.349Z,32.43
2018-01-10T15:22:10.818Z,31.70
2018-01-10T15:24:38.810Z,30.27
2018-01-10T15:27:06.273Z,31.50
2018-01-10T15:29:33.736Z,31.90
2018-01-10T15:32:01.494Z,28.83
2018-01-10T15:34:28.954Z,31.53
2018-01-10T15:36:56.425Z,31.87
2018-01-10T15:39:24.490Z,36.07
2018-01-10T15:41:51.956Z,43.53
2018-01-10T15:44:19.416Z,34.63
2018-01-10T15:46:47.084Z,33.27
2018-01-10T15:49:14.547Z,32.30
2018-01-10T15:51:42.005Z,33.60
2018-01-10T15:54:09.861Z,34.60
2018-01-10T15:56:37.322Z,33.73
2018-01-10T15:59:04.788Z,31.97
2018-01-10T16:01:32.541Z,31.20
2018-01-10T16:04:00.025Z,31.00
2018-01-10T16:06:27.493Z,32.03
2018-01-10T16:08:55.239Z,34.10
2018-01-10T16:11:22.702Z,41.67
2018-01-10T16:13:50.170Z,44.10
2018-01-10T16:16:17.917Z,39.20
2018-01-10T16:18:45.389Z,37.93
2018-01-10T16:21:14.754Z,37.10
2018-01-10T16:23:42.442Z,37.23
2018-01-10T16:26:09.899Z,38.33
2018-01-10T16:28:37.355Z,34.63
2018-01-10T16:31:05.150Z,38.10
2018-01-10T16:33:32.614Z,37.50
2018-01-10T16:36:00.065Z,40.33
2018-01-10T16:38:27.824Z,43.33
2018-01-10T16:40:55.290Z,42.80
2018-01-10T16:43:22.753Z,44.80
2018-01-10T16:45:50.561Z,41.93
2018-01-10T16:48:18.027Z,40.37
2018-01-10T16:50:45.489Z,44.70
2018-01-10T16:53:13.350Z,41.13
2018-01-10T16:55:40.813Z,41.50
2018-01-10T16:58:08.281Z,51.77
2018-01-10T17:00:36.132Z,47.90
2018-01-10T17:03:03.610Z,46.37
2018-01-10T17:05:31.073Z,46.33
2018-01-10T17:07:58.896Z,43.50
2018-01-10T17:10:26.358Z,42.50
2018-01-10T17:12:53.813Z,40.83
2018-01-10T17:15:21.574Z,39.40
2018-01-10T17:17:49.054Z,45.03
2018-01-10T17:20:16.522Z,41.23
2018-01-10T17:22:45.793Z,38.23
2018-01-10T17:25:13.254Z,41.90
2018-01-10T17:27:40.726Z,38.50
2018-01-10T17:30:08.483Z,39.80
2018-01-10T17:32:35.948Z,39.93
2018-01-10T17:35:03.410Z,38.47
2018-01-10T17:37:31.164Z,34.47
2018-01-10T17:39:58.631Z,33.97
2018-01-10T17:42:26.088Z,32.07
2018-01-10T17:44:53.855Z,37.00
2018-01-10T17:47:21.325Z,34.70
2018-01-10T17:49:48.816Z,34.13
2018-01-10T17:52:16.572Z,40.00
2018-01-10T17:54:44.033Z,40.40
2018-01-10T17:57:11.507Z,37.23
2018-01-10T17:59:39.540Z,29.90
2018-01-10T18:02:07.342Z,37.90
2018-01-10T18:04:34.805Z,34.63
2018-01-10T18:07:02.461Z,32.10
2018-01-10T18:09:29.950Z,31.20
2018-01-10T18:11:57.447Z,31.13
2018-01-10T18:14:25.216Z,28.43
2018-01-10T18:16:52.690Z,27.17
2018-01-10T18:19:20.155Z,28.50
2018-01-10T18:21:47.904Z,29.50
2018-01-10T18:24:15.757Z,28.67
2018-01-10T18:26:43.229Z,30.30
2018-01-10T18:29:10.961Z,29.20
2018-01-10T18:31:38.430Z,28.93
2018-01-10T18:34:05.889Z,29.47
2018-01-10T18:36:33.788Z,29.13
2018-01-10T18:39:01.248Z,30.17
2018-01-10T18:41:28.721Z,29.77
2018-01-10T18:43:56.602Z,29.03
2018-01-10T18:46:24.069Z,28.73
2018-01-10T18:48:51.532Z,28.17
2018-01-10T18:51:19.594Z,30.53
2018-01-10T18:53:47.056Z,29.17
2018-01-10T18:56:14.513Z,28.73
2018-01-10T18:58:42.234Z,28.97
2018-01-10T19:01:09.697Z,28.80
2018-01-10T19:03:37.166Z,28.10
2018-01-10T19:06:04.951Z,28.50
2018-01-10T19:08:32.421Z,29.60
2018-01-10T19:10:59.906Z,29.07
2018-01-10T19:13:27.972Z,29.37
2018-01-10T19:15:55.445Z,29.57
2018-01-10T19:18:22.908Z,35.35
2018-01-10T19:20:50.629Z,31.60
2018-01-10T19:23:18.158Z,32.37
2018-01-10T19:25:45.935Z,32.40
2018-01-10T19:28:13.649Z,30.87
2018-01-10T19:30:41.114Z,32.10
2018-01-10T19:33:08.586Z,29.93
2018-01-10T19:35:36.328Z,30.90
2018-01-10T19:38:03.789Z,29.47
2018-01-10T19:40:31.308Z,31.40
2018-01-10T19:42:59.308Z,31.17
2018-01-10T19:45:26.769Z,29.97
2018-01-10T19:47:54.246Z,26.93
2018-01-10T19:50:21.984Z,28.23
2018-01-10T19:52:49.444Z,29.50
2018-01-10T19:55:16.919Z,29.70
2018-01-10T19:57:44.681Z,35.50
2018-01-10T20:00:12.145Z,29.33
2018-01-10T20:02:39.606Z,29.50
2018-01-10T20:05:07.357Z,27.17
2018-01-10T20:07:34.807Z,29.00
2018-01-10T20:10:02.284Z,26.87
2018-01-10T20:12:30.057Z,27.33
2018-01-10T20:14:57.544Z,28.97
2018-01-10T20:17:25.113Z,27.87
2018-01-10T20:19:53.370Z,34.90
2018-01-10T20:22:20.839Z,29.30
2018-01-10T20:24:48.296Z,27.43
2018-01-10T20:27:16.968Z,27.87
2018-01-10T20:29:44.441Z,29.60
2018-01-10T20:32:11.909Z,30.90
2018-01-10T20:34:39.695Z,28.07
2018-01-10T20:37:07.426Z,29.37
2018-01-10T20:39:34.880Z,29.03
2018-01-10T20:42:02.944Z,28.17
2018-01-10T20:44:31.509Z,28.20
2018-01-10T20:46:58.969Z,29.60
2018-01-10T20:49:26.861Z,28.60
2018-01-10T20:51:54.318Z,28.10
2018-01-10T20:54:22.406Z,33.60
2018-01-10T20:56:50.778Z,40.77
2018-01-10T20:59:18.249Z,29.73
2018-01-10T21:01:45.747Z,33.77
2018-01-10T21:04:14.082Z,29.00
2018-01-10T21:06:42.742Z,29.77
2018-01-10T21:09:10.976Z,29.17
2018-01-10T21:11:39.224Z,27.70
2018-01-10T21:14:06.690Z,26.97
2018-01-10T21:16:34.680Z,27.87
2018-01-10T21:19:02.533Z,28.10
2018-01-10T21:21:29.995Z,28.30
2018-01-10T21:23:57.463Z,26.67
2018-01-10T21:26:25.229Z,29.47
2018-01-10T21:28:53.825Z,27.60
2018-01-10T21:31:21.287Z,32.00
2018-01-10T21:33:49.142Z,28.83
2018-01-10T21:36:17.278Z,26.67
2018-01-10T21:38:45.024Z,26.70
2018-01-10T21:41:13.051Z,27.27
2018-01-10T21:43:40.505Z,29.30
2018-01-10T21:46:07.988Z,28.37
2018-01-10T21:48:36.399Z,29.17
2018-01-10T21:51:03.859Z,29.80
2018-01-10T21:53:31.335Z,28.77
2018-01-10T21:55:59.666Z,30.47
2018-01-10T21:58:27.121Z,28.33
2018-01-10T22:00:54.596Z,29.67
2018-01-10T22:03:23.639Z,29.77
2018-01-10T22:05:51.097Z,32.17
2018-01-10T22:08:18.545Z,28.40
2018-01-10T22:10:46.261Z,29.33
2018-01-10T22:13:13.721Z,27.63
2018-01-10T22:15:41.183Z,28.03
2018-01-10T22:18:09.640Z,29.53
2018-01-10T22:20:37.092Z,27.70
2018-01-10T22:23:04.543Z,29.90
2018-01-10T22:25:32.253Z,29.20
2018-01-10T22:27:59.733Z,29.60
2018-01-10T22:30:28.773Z,29.30
2018-01-10T22:32:56.441Z,28.27
2018-01-10T22:35:23.970Z,29.37
2018-01-10T22:37:51.432Z,30.00
2018-01-10T22:40:19.160Z,28.67
2018-01-10T22:42:46.644Z,29.40
2018-01-10T22:45:14.115Z,29.67
2018-01-10T22:47:41.847Z,32.00
2018-01-10T22:50:09.317Z,31.90
2018-01-10T22:52:36.782Z,33.40
2018-01-10T22:55:04.537Z,31.23
2018-01-10T22:57:31.993Z,30.03
2018-01-10T22:59:59.460Z,30.87
2018-01-10T23:02:27.183Z,32.20
2018-01-10T23:04:54.638Z,31.97
2018-01-10T23:07:22.090Z,33.23
2018-01-10T23:09:49.906Z,29.87
2018-01-10T23:12:17.357Z,31.77
2018-01-10T23:14:44.817Z,31.13
2018-01-10T23:17:12.592Z,31.70
2018-01-10T23:19:40.225Z,31.43
2018-01-10T23:22:07.889Z,32.83
2018-01-10T23:24:35.900Z,32.57
2018-01-10T23:27:03.379Z,31.30
2018-01-10T23:29:30.856Z,33.47
2018-01-10T23:31:59.193Z,33.47
2018-01-10T23:34:26.653Z,31.90
2018-01-10T23:36:54.109Z,32.90
2018-01-10T23:39:21.880Z,32.57
2018-01-10T23:41:49.349Z,34.83
2018-01-10T23:44:16.808Z,33.00
2018-01-10T23:46:44.568Z,32.60
2018-01-10T23:49:12.086Z,34.40
2018-01-10T23:51:39.510Z,34.17
2018-01-10T23:54:07.261Z,33.93
2018-01-10T23:56:34.717Z,33.47
2018-01-10T23:59:02.166Z,34.40
